createdAt,value
2023-01-23T00:00:17.283Z,93.93
2023-01-23T00:02:45.944Z,93.15
2023-01-23T00:05:14.633Z,93.27
2023-01-23T00:07:43.029Z,92.49
2023-01-23T00:10:14.868Z,92.20
2023-01-23T00:12:44.841Z,92.49
2023-01-23T00:15:14.923Z,92.55
2023-01-23T00:17:45.190Z,92.17
2023-01-23T00:20:14.414Z,91.97
2023-01-23T00:22:42.972Z,91.89
2023-01-23T00:25:11.643Z,92.08
2023-01-23T00:27:40.077Z,92.58
2023-01-23T00:30:09.859Z,92.43
2023-01-23T00:32:39.630Z,91.65
2023-01-23T00:35:08.761Z,91.92
2023-01-23T00:37:37.425Z,91.77
2023-01-23T00:40:07.074Z,92.38
2023-01-23T00:42:35.665Z,92.61
2023-01-23T00:45:04.514Z,92.59
2023-01-23T00:47:33.103Z,92.75
2023-01-23T00:50:03.203Z,93.37
2023-01-23T00:52:31.676Z,92.67
2023-01-23T00:55:00.119Z,93.24
2023-01-23T00:57:28.947Z,92.82
2023-01-23T00:59:57.348Z,92.52
2023-01-23T01:02:26.040Z,92.49
2023-01-23T01:04:54.457Z,92.19
2023-01-23T01:07:24.420Z,92.90
2023-01-23T01:09:53.044Z,92.69
2023-01-23T01:12:21.702Z,92.83
2023-01-23T01:14:50.266Z,93.01
2023-01-23T01:17:18.794Z,93.01
2023-01-23T01:19:47.274Z,92.44
2023-01-23T01:22:15.843Z,92.79
2023-01-23T01:24:46.070Z,92.55
2023-01-23T01:27:14.657Z,92.31
2023-01-23T01:29:43.208Z,92.14
2023-01-23T01:32:11.712Z,93.00
2023-01-23T01:34:40.089Z,92.29
2023-01-23T01:37:08.560Z,92.64
2023-01-23T01:39:37.245Z,92.93
2023-01-23T01:42:07.145Z,92.90
2023-01-23T01:44:54.327Z,92.72
2023-01-23T01:47:23.190Z,92.17
2023-01-23T01:49:53.505Z,92.08
2023-01-23T01:52:24.277Z,92.97
2023-01-23T01:54:56.992Z,92.56
2023-01-23T01:57:29.888Z,92.04
2023-01-23T02:00:01.775Z,92.57
2023-01-23T02:02:34.009Z,92.43
2023-01-23T02:05:05.346Z,92.22
2023-01-23T02:07:38.359Z,92.58
2023-01-23T02:10:09.276Z,92.17
2023-01-23T02:12:39.945Z,92.10
2023-01-23T02:15:10.082Z,92.42
2023-01-23T02:17:38.855Z,92.32
2023-01-23T02:20:14.322Z,92.87
2023-01-23T02:22:55.812Z,92.42
2023-01-23T02:25:31.686Z,93.16
2023-01-23T02:28:02.363Z,92.38
2023-01-23T02:30:30.921Z,92.66
2023-01-23T02:33:09.252Z,92.90
2023-01-23T02:35:38.925Z,93.00
2023-01-23T02:38:07.689Z,93.18
2023-01-23T02:40:38.453Z,93.62
2023-01-23T02:43:11.946Z,93.32
2023-01-23T02:45:40.868Z,93.18
2023-01-23T02:48:09.847Z,92.89
2023-01-23T02:50:38.384Z,93.17
2023-01-23T02:53:07.167Z,92.73
2023-01-23T02:55:37.833Z,93.76
2023-01-23T02:58:21.711Z,93.38
2023-01-23T03:00:50.496Z,94.02
2023-01-23T03:03:18.939Z,93.71
2023-01-23T03:05:48.455Z,93.39
2023-01-23T03:08:17.044Z,93.08
2023-01-23T03:10:45.573Z,93.42
2023-01-23T03:13:17.250Z,93.18
2023-01-23T03:15:45.666Z,93.60
2023-01-23T03:18:14.181Z,94.15
2023-01-23T03:20:43.393Z,93.93
2023-01-23T03:23:12.013Z,93.91
2023-01-23T03:25:44.585Z,94.89
2023-01-23T03:28:33.253Z,94.15
2023-01-23T03:31:02.290Z,93.80
2023-01-23T03:33:30.815Z,94.58
2023-01-23T03:35:59.232Z,93.57
2023-01-23T03:38:27.717Z,93.34
2023-01-23T03:41:28.132Z,92.84
2023-01-23T03:43:57.742Z,93.10
2023-01-23T03:46:28.302Z,93.67
2023-01-23T03:48:56.800Z,93.56
2023-01-23T03:51:25.334Z,93.17
2023-01-23T03:53:54.099Z,93.23
2023-01-23T03:56:22.676Z,93.54
2023-01-23T03:58:51.121Z,93.25
2023-01-23T04:01:19.922Z,93.45
2023-01-23T04:03:50.910Z,93.56
2023-01-23T04:06:19.870Z,93.89
2023-01-23T04:08:48.430Z,93.56
2023-01-23T04:11:16.983Z,94.00
2023-01-23T04:13:48.195Z,93.51
2023-01-23T04:16:17.007Z,93.84
2023-01-23T04:18:45.518Z,92.55
2023-01-23T04:21:15.471Z,93.06
2023-01-23T04:23:43.990Z,92.90
2023-01-23T04:26:12.392Z,93.17
2023-01-23T04:28:41.287Z,92.64
2023-01-23T04:31:10.193Z,92.66
2023-01-23T04:33:38.606Z,92.31
2023-01-23T04:36:08.287Z,92.14
2023-01-23T04:38:38.233Z,92.56
2023-01-23T04:41:06.879Z,92.64
2023-01-23T04:43:35.850Z,92.47
2023-01-23T04:46:04.415Z,92.17
2023-01-23T04:48:32.885Z,92.07
2023-01-23T04:51:01.354Z,92.63
2023-01-23T04:53:29.949Z,92.40
2023-01-23T04:55:59.864Z,91.95
2023-01-23T04:58:28.530Z,91.74
2023-01-23T05:01:02.751Z,92.15
2023-01-23T05:03:32.815Z,93.06
2023-01-23T05:06:01.384Z,92.97
2023-01-23T05:08:29.817Z,92.30
2023-01-23T05:10:59.656Z,91.78
2023-01-23T05:13:28.035Z,91.21
2023-01-23T05:15:58.265Z,91.25
2023-01-23T05:18:27.123Z,91.49
2023-01-23T05:20:55.490Z,91.71
2023-01-23T05:23:23.969Z,92.30
2023-01-23T05:25:52.609Z,92.38
2023-01-23T05:28:22.809Z,92.41
2023-01-23T05:30:51.381Z,91.71
2023-01-23T05:33:19.955Z,91.18
2023-01-23T05:35:48.368Z,91.27
2023-01-23T05:38:16.889Z,91.21
2023-01-23T05:40:45.544Z,90.79
2023-01-23T05:43:15.719Z,90.54
2023-01-23T05:45:45.498Z,90.23
2023-01-23T05:48:13.936Z,91.00
2023-01-23T05:50:42.647Z,91.46
2023-01-23T05:53:11.404Z,90.64
2023-01-23T05:55:40.155Z,91.80
2023-01-23T05:58:08.657Z,90.37
2023-01-23T06:00:37.621Z,90.15
2023-01-23T06:03:09.803Z,89.95
2023-01-23T06:05:38.703Z,90.33
2023-01-23T06:08:07.884Z,90.71
2023-01-23T06:10:38.202Z,90.76
2023-01-23T06:13:06.682Z,91.16
2023-01-23T06:15:35.209Z,91.24
2023-01-23T06:18:03.969Z,91.06
2023-01-23T06:20:33.811Z,91.37
2023-01-23T06:23:02.247Z,91.97
2023-01-23T06:25:30.873Z,91.34
2023-01-23T06:27:59.368Z,90.60
2023-01-23T06:30:28.337Z,89.95
2023-01-23T06:32:56.971Z,90.61
2023-01-23T06:35:25.706Z,90.83
2023-01-23T06:37:55.689Z,89.93
2023-01-23T06:40:24.118Z,90.36
2023-01-23T06:42:55.927Z,90.49
2023-01-23T06:45:24.685Z,90.29
2023-01-23T06:47:53.490Z,89.89
2023-01-23T06:50:22.444Z,89.92
2023-01-23T06:52:51.075Z,90.31
2023-01-23T06:55:21.243Z,90.59
2023-01-23T06:57:50.027Z,90.92
2023-01-23T07:00:23.602Z,90.96
2023-01-23T07:02:53.111Z,90.66
2023-01-23T07:05:22.316Z,90.80
2023-01-23T07:07:53.426Z,90.48
2023-01-23T07:10:24.175Z,90.21
2023-01-23T07:12:52.909Z,89.83
2023-01-23T07:15:21.654Z,89.95
2023-01-23T07:17:50.419Z,90.01
2023-01-23T07:20:19.719Z,89.90
2023-01-23T07:22:49.911Z,89.48
2023-01-23T07:25:18.467Z,89.83
2023-01-23T07:27:48.662Z,89.35
2023-01-23T07:30:18.937Z,89.88
2023-01-23T07:32:47.703Z,89.57
2023-01-23T07:35:16.434Z,90.15
2023-01-23T07:37:44.882Z,89.94
2023-01-23T07:40:14.433Z,90.39
2023-01-23T07:42:42.899Z,90.35
2023-01-23T07:45:14.175Z,90.52
2023-01-23T07:47:44.815Z,90.14
2023-01-23T07:50:16.247Z,89.37
2023-01-23T07:52:44.801Z,89.18
2023-01-23T07:55:22.099Z,89.46
2023-01-23T07:57:50.777Z,88.54
2023-01-23T08:00:24.294Z,88.83
2023-01-23T08:02:53.403Z,89.35
2023-01-23T08:05:21.984Z,89.91
2023-01-23T08:07:52.292Z,89.56
2023-01-23T08:10:26.620Z,90.01
2023-01-23T08:12:55.211Z,89.96
2023-01-23T08:15:25.125Z,90.81
2023-01-23T08:17:54.703Z,90.88
2023-01-23T08:20:23.627Z,90.87
2023-01-23T08:22:52.579Z,91.13
2023-01-23T08:25:21.059Z,90.86
2023-01-23T08:27:49.558Z,91.28
2023-01-23T08:30:18.844Z,91.03
2023-01-23T08:32:49.113Z,90.01
2023-01-23T08:35:17.743Z,90.04
2023-01-23T08:37:46.260Z,90.12
2023-01-23T08:40:14.892Z,89.86
2023-01-23T08:42:44.535Z,90.12
2023-01-23T08:45:17.043Z,90.25
2023-01-23T08:47:45.811Z,90.93
2023-01-23T08:50:15.867Z,90.14
2023-01-23T08:52:44.521Z,89.64
2023-01-23T08:55:13.823Z,90.41
2023-01-23T08:57:42.266Z,90.20
2023-01-23T09:00:13.032Z,89.10
2023-01-23T09:02:41.591Z,88.88
2023-01-23T09:05:10.696Z,88.27
2023-01-23T09:07:40.952Z,87.63
2023-01-23T09:10:11.317Z,87.64
2023-01-23T09:12:42.686Z,87.72
2023-01-23T09:15:11.997Z,87.34
2023-01-23T09:17:40.651Z,86.21
2023-01-23T09:20:12.113Z,85.96
2023-01-23T09:22:42.962Z,85.66
2023-01-23T09:25:12.225Z,85.91
2023-01-23T09:27:41.428Z,85.27
2023-01-23T09:30:11.313Z,84.44
2023-01-23T09:32:39.943Z,84.53
2023-01-23T09:35:09.482Z,83.74
2023-01-23T09:37:58.467Z,83.06
2023-01-23T09:40:30.917Z,82.38
2023-01-23T09:43:17.000Z,81.60
2023-01-23T09:45:54.800Z,81.04
2023-01-23T09:48:29.600Z,81.01
2023-01-23T09:51:03.288Z,80.61
2023-01-23T09:53:38.315Z,81.10
2023-01-23T09:56:19.079Z,81.02
2023-01-23T09:59:00.285Z,80.62
2023-01-23T10:01:31.881Z,81.12
2023-01-23T10:04:02.102Z,79.31
2023-01-23T10:06:32.915Z,79.05
2023-01-23T10:09:27.166Z,77.91
2023-01-23T10:12:05.404Z,78.79
2023-01-23T10:14:50.768Z,78.88
2023-01-23T10:17:25.516Z,78.25
2023-01-23T10:20:15.643Z,79.02
2023-01-23T10:22:57.597Z,77.88
2023-01-23T10:25:33.263Z,77.23
2023-01-23T10:28:19.341Z,77.40
2023-01-23T10:30:56.259Z,77.27
2023-01-23T10:33:34.639Z,76.05
2023-01-23T10:36:15.101Z,76.81
2023-01-23T10:39:00.118Z,76.65
2023-01-23T10:41:32.260Z,76.16
2023-01-23T10:44:15.440Z,75.22
2023-01-23T10:46:50.875Z,74.95
2023-01-23T10:49:36.403Z,74.74
2023-01-23T10:52:10.455Z,73.42
2023-01-23T10:54:48.764Z,73.83
2023-01-23T10:57:24.841Z,74.09
2023-01-23T11:00:07.016Z,74.07
2023-01-23T11:02:41.237Z,73.45
2023-01-23T11:05:52.573Z,73.60
2023-01-23T11:08:31.977Z,73.97
2023-01-23T11:11:23.035Z,75.05
2023-01-23T11:14:09.569Z,75.68
2023-01-23T11:16:46.388Z,76.32
2023-01-23T11:19:22.643Z,77.23
2023-01-23T11:21:58.155Z,75.63
2023-01-23T11:24:41.435Z,75.54
2023-01-23T11:27:24.320Z,75.72
2023-01-23T11:30:43.030Z,77.45
2023-01-23T11:33:51.818Z,75.69
2023-01-23T11:36:50.565Z,75.99
2023-01-23T11:39:44.561Z,75.37
2023-01-23T11:42:16.273Z,75.13
2023-01-23T11:44:46.888Z,76.23
2023-01-23T11:47:42.757Z,75.38
2023-01-23T11:50:54.884Z,76.43
2023-01-23T11:53:42.997Z,75.46
2023-01-23T11:56:27.211Z,74.97
2023-01-23T11:59:17.943Z,71.24
2023-01-23T12:02:03.691Z,70.72
2023-01-23T12:05:04.129Z,70.36
2023-01-23T12:07:43.184Z,71.99
2023-01-23T12:10:25.144Z,72.40
2023-01-23T12:13:20.884Z,70.82
2023-01-23T12:16:07.558Z,70.42
2023-01-23T12:18:45.095Z,70.00
2023-01-23T12:21:24.585Z,69.26
2023-01-23T12:24:12.543Z,69.54
2023-01-23T12:26:58.974Z,68.84
2023-01-23T12:29:45.646Z,69.59
2023-01-23T12:32:33.256Z,70.00
2023-01-23T12:35:19.053Z,71.30
2023-01-23T12:38:04.483Z,71.16
2023-01-23T12:40:48.277Z,71.04
2023-01-23T12:43:24.718Z,71.80
2023-01-23T12:46:06.964Z,71.04
2023-01-23T12:48:40.294Z,71.31
2023-01-23T12:51:13.693Z,71.65
2023-01-23T12:53:45.993Z,71.99
2023-01-23T12:56:25.866Z,72.28
2023-01-23T12:59:08.302Z,72.97
2023-01-23T13:01:50.657Z,73.27
2023-01-23T13:04:44.314Z,74.04
2023-01-23T13:07:38.322Z,74.81
2023-01-23T13:10:26.441Z,75.10
2023-01-23T13:13:02.938Z,75.69
2023-01-23T13:15:41.842Z,75.72
2023-01-23T13:18:24.445Z,76.95
2023-01-23T13:21:16.074Z,76.98
2023-01-23T13:23:45.155Z,77.25
2023-01-23T13:26:29.000Z,77.95
2023-01-23T13:29:04.274Z,78.27
2023-01-23T13:31:40.153Z,78.02
2023-01-23T13:34:38.022Z,78.38
2023-01-23T13:37:51.194Z,78.02
2023-01-23T13:40:25.646Z,78.56
2023-01-23T13:42:54.287Z,78.29
2023-01-23T13:45:32.012Z,78.53
2023-01-23T14:23:35.287Z,80.44
2023-01-23T14:26:05.937Z,80.64
2023-01-23T14:28:34.539Z,81.34
2023-01-23T14:31:06.682Z,81.76
2023-01-23T14:33:45.957Z,81.90
2023-01-23T14:36:19.693Z,81.41
2023-01-23T14:38:51.088Z,80.99
2023-01-23T14:41:31.723Z,81.05
2023-01-23T14:44:03.477Z,81.02
2023-01-23T14:46:40.146Z,80.68
2023-01-23T14:49:15.703Z,80.60
2023-01-23T14:51:57.115Z,80.27
2023-01-23T14:54:29.621Z,80.84
2023-01-23T14:57:08.047Z,80.90
2023-01-23T14:59:42.360Z,81.27
2023-01-23T15:02:26.874Z,81.09
2023-01-23T15:05:08.874Z,81.20
2023-01-23T15:07:46.085Z,81.53
2023-01-23T15:10:17.481Z,81.75
2023-01-23T15:12:53.071Z,81.92
2023-01-23T15:15:24.922Z,82.05
2023-01-23T15:17:56.010Z,82.35
2023-01-23T15:20:36.319Z,82.35
2023-01-23T15:23:24.973Z,83.01
2023-01-23T15:26:25.326Z,83.09
2023-01-23T15:28:55.652Z,83.37
2023-01-23T15:31:27.527Z,83.39
2023-01-23T15:33:58.494Z,83.29
2023-01-23T15:36:30.480Z,83.52
2023-01-23T15:39:00.943Z,83.94
2023-01-23T15:41:40.399Z,83.70
2023-01-23T15:44:14.169Z,84.24
2023-01-23T15:46:43.076Z,83.57
2023-01-23T15:49:24.338Z,83.02
2023-01-23T15:51:56.111Z,82.36
2023-01-23T15:54:32.084Z,83.76
2023-01-23T15:57:07.565Z,84.34
2023-01-23T15:59:37.943Z,84.76
2023-01-23T16:02:12.826Z,84.83
2023-01-23T16:04:47.708Z,84.90
2023-01-23T16:07:23.851Z,84.90
2023-01-23T16:09:55.157Z,84.21
2023-01-23T16:12:29.343Z,83.88
2023-01-23T16:14:59.165Z,83.92
2023-01-23T16:17:27.767Z,84.39
2023-01-23T16:19:56.265Z,84.26
2023-01-23T16:22:29.284Z,83.97
2023-01-23T16:25:02.330Z,84.34
2023-01-23T16:27:32.187Z,84.79
2023-01-23T16:30:00.633Z,84.37
2023-01-23T16:32:29.310Z,84.12
2023-01-23T16:35:13.154Z,83.85
2023-01-23T16:37:53.698Z,83.37
2023-01-23T16:40:29.502Z,84.22
2023-01-23T16:43:00.005Z,84.48
2023-01-23T16:45:34.171Z,83.88
2023-01-23T16:48:03.904Z,83.65
2023-01-23T16:50:37.094Z,84.22
2023-01-23T16:53:12.544Z,83.82
2023-01-23T16:55:45.128Z,83.02
2023-01-23T16:58:18.502Z,82.48
2023-01-23T17:00:47.951Z,83.55
2023-01-23T17:03:27.685Z,83.30
2023-01-23T17:05:56.764Z,83.42
2023-01-23T17:08:26.455Z,83.33
2023-01-23T17:11:04.298Z,83.41
2023-01-23T17:13:35.763Z,82.78
2023-01-23T17:16:12.745Z,83.17
2023-01-23T17:18:50.730Z,83.61
2023-01-23T17:21:23.492Z,83.44
2023-01-23T17:23:52.235Z,83.02
2023-01-23T17:26:22.195Z,82.44
2023-01-23T17:28:53.852Z,83.29
2023-01-23T17:31:32.692Z,82.55
2023-01-23T17:34:04.275Z,81.56
2023-01-23T17:36:33.825Z,81.05
2023-01-23T17:39:02.586Z,81.95
2023-01-23T17:41:41.310Z,81.64
2023-01-23T17:44:10.062Z,82.13
2023-01-23T17:46:43.042Z,82.28
2023-01-23T17:49:29.230Z,82.26
2023-01-23T17:52:01.474Z,81.95
2023-01-23T17:54:30.061Z,81.88
2023-01-23T17:57:00.026Z,82.16
2023-01-23T17:59:34.703Z,81.82
2023-01-23T18:02:29.804Z,82.77
2023-01-23T18:05:01.049Z,82.14
2023-01-23T18:07:29.916Z,81.79
2023-01-23T18:09:58.728Z,81.68
2023-01-23T18:12:40.963Z,82.13
2023-01-23T18:15:18.124Z,81.03
2023-01-23T18:17:56.038Z,81.24
2023-01-23T18:20:35.575Z,80.97
2023-01-23T18:23:12.920Z,81.02
2023-01-23T18:25:46.157Z,81.50
2023-01-23T18:28:24.028Z,82.11
2023-01-23T18:31:00.724Z,80.67
2023-01-23T18:33:48.502Z,80.79
2023-01-23T18:36:31.158Z,81.26
2023-01-23T18:39:16.453Z,80.28
2023-01-23T18:42:04.734Z,80.04
2023-01-23T18:44:35.918Z,81.23
2023-01-23T18:47:11.727Z,81.41
2023-01-23T18:49:44.274Z,80.80
2023-01-23T18:52:18.028Z,81.44
2023-01-23T18:54:54.676Z,81.47
2023-01-23T18:57:45.323Z,80.90
2023-01-23T19:00:19.897Z,80.87
2023-01-23T19:02:57.095Z,80.67
2023-01-23T19:05:31.374Z,80.58
2023-01-23T19:08:01.292Z,81.19
2023-01-23T19:10:47.571Z,81.20
2023-01-23T19:13:21.058Z,81.27
2023-01-23T19:16:05.492Z,81.50
2023-01-23T19:18:45.834Z,81.68
2023-01-23T19:21:23.008Z,81.54
2023-01-23T19:23:58.017Z,81.62
2023-01-23T19:26:29.533Z,81.75
2023-01-23T19:29:05.649Z,81.66
2023-01-23T19:32:06.529Z,81.58
2023-01-23T19:34:35.957Z,81.86
2023-01-23T19:37:08.660Z,82.47
2023-01-23T19:39:51.635Z,82.32
2023-01-23T19:42:58.730Z,82.68
2023-01-23T19:45:36.047Z,82.52
2023-01-23T19:48:06.845Z,82.84
2023-01-23T19:50:35.951Z,82.60
2023-01-23T19:53:05.670Z,82.63
2023-01-23T19:55:38.683Z,83.25
2023-01-23T19:58:08.236Z,83.69
2023-01-23T20:00:37.093Z,83.86
2023-01-23T20:03:16.552Z,83.78
2023-01-23T20:05:45.306Z,83.99
2023-01-23T20:08:13.759Z,84.04
2023-01-23T20:10:43.615Z,84.13
2023-01-23T20:13:12.716Z,83.84
2023-01-23T20:15:44.386Z,83.86
2023-01-23T20:18:16.228Z,83.17
2023-01-23T20:20:44.829Z,83.46
2023-01-23T20:23:14.182Z,83.67
2023-01-23T20:25:42.641Z,83.77
2023-01-23T20:28:13.941Z,83.58
2023-01-23T20:30:42.562Z,84.00
2023-01-23T20:33:11.809Z,82.96
2023-01-23T20:35:43.785Z,83.88
2023-01-23T20:38:13.298Z,83.34
2023-01-23T20:40:43.379Z,84.13
2023-01-23T20:43:15.230Z,83.37
2023-01-23T20:45:50.424Z,84.09
2023-01-23T20:48:24.467Z,83.90
2023-01-23T20:50:58.655Z,83.67
2023-01-23T20:53:38.726Z,83.55
2023-01-23T20:56:13.488Z,83.51
2023-01-23T20:59:01.981Z,84.14
2023-01-23T21:01:53.709Z,84.28
2023-01-23T21:04:24.049Z,84.21
2023-01-23T21:06:57.291Z,84.82
2023-01-23T21:09:26.061Z,84.81
2023-01-23T21:11:55.386Z,84.12
2023-01-23T21:14:27.368Z,84.08
2023-01-23T21:16:59.092Z,83.43
2023-01-23T21:19:28.375Z,83.86
2023-01-23T21:22:06.431Z,84.06
2023-01-23T21:24:36.042Z,83.99
2023-01-23T21:27:05.397Z,83.46
2023-01-23T21:29:34.737Z,83.58
2023-01-23T21:32:03.604Z,83.93
2023-01-23T21:34:32.782Z,83.19
2023-01-23T21:37:03.634Z,83.54
2023-01-23T21:39:32.609Z,84.02
2023-01-23T21:42:01.274Z,84.71
2023-01-23T21:44:29.735Z,84.73
2023-01-23T21:46:58.252Z,84.68
2023-01-23T21:49:26.889Z,84.26
2023-01-23T21:51:55.584Z,83.98
2023-01-23T21:54:25.724Z,83.93
2023-01-23T21:56:54.144Z,83.72
2023-01-23T21:59:22.652Z,83.93
2023-01-23T22:01:50.426Z,83.27
2023-01-23T22:04:22.305Z,83.73
2023-01-23T22:06:54.862Z,84.21
2023-01-23T22:09:26.213Z,83.52
2023-01-23T22:11:55.663Z,84.12
2023-01-23T22:14:24.242Z,84.25
2023-01-23T22:16:52.874Z,83.52
2023-01-23T22:19:25.637Z,83.52
2023-01-23T22:21:55.076Z,83.54
2023-01-23T22:24:25.393Z,83.33
2023-01-23T22:26:53.806Z,83.12
2023-01-23T22:29:22.800Z,83.44
2023-01-23T22:31:52.140Z,83.21
2023-01-23T22:34:21.343Z,83.02
2023-01-23T22:36:49.973Z,82.35
2023-01-23T22:39:19.742Z,82.21
2023-01-23T22:41:51.045Z,81.77
2023-01-23T22:44:20.014Z,82.38
2023-01-23T22:46:51.384Z,81.86
2023-01-23T22:49:20.928Z,82.47
2023-01-23T22:51:51.552Z,82.56
2023-01-23T22:54:20.819Z,82.37
2023-01-23T22:56:50.814Z,82.61
2023-01-23T22:59:19.615Z,82.29
2023-01-23T23:01:48.756Z,82.73
2023-01-23T23:04:17.905Z,82.73
2023-01-23T23:06:46.773Z,83.19
2023-01-23T23:09:15.795Z,83.16
2023-01-23T23:11:47.305Z,83.61
2023-01-23T23:14:17.495Z,82.58
2023-01-23T23:16:45.974Z,82.90
2023-01-23T23:19:14.426Z,82.95
2023-01-23T23:21:42.848Z,83.44
2023-01-23T23:24:14.028Z,83.17
2023-01-23T23:26:42.870Z,84.08
2023-01-23T23:29:11.465Z,82.89
2023-01-23T23:31:41.947Z,82.57
2023-01-23T23:34:10.484Z,82.46
2023-01-23T23:36:38.931Z,82.66
2023-01-23T23:39:07.571Z,83.13
2023-01-23T23:41:36.092Z,82.63
2023-01-23T23:44:04.962Z,82.97
2023-01-23T23:46:33.510Z,82.63
2023-01-23T23:49:03.409Z,82.71
2023-01-23T23:51:31.984Z,82.46
2023-01-23T23:54:00.572Z,81.80
2023-01-23T23:56:32.051Z,82.14
2023-01-23T23:59:00.774Z,82.66
